sensor_id;sensor_type;location;lat;lon;timestamp;P1;durP1;ratioP1;P2;durP2;ratioP2
1090;SDS011;534;48.704;9.122;2024-03-23T05:02:09;8.63;;;3.83;;
1090;SDS011;534;48.704;9.122;2024-03-23T05:04:36;9.83;;;3.80;;
1090;SDS011;534;48.704;9.122;2024-03-23T05:07:02;7.17;;;4.60;;
1090;SDS011;534;48.704;9.122;2024-03-23T05:09:29;8.50;;;4.60;;
1090;SDS011;534;48.704;9.122;2024-03-23T05:11:55;8.50;;;4.97;;
1090;SDS011;534;48.704;9.122;2024-03-23T05:14:22;8.17;;;5.00;;
1090;SDS011;534;48.704;9.122;2024-03-23T05:16:47;9.33;;;5.70;;
1090;SDS011;534;48.704;9.122;2024-03-23T05:19:15;13.70;;;6.90;;
1090;SDS011;534;48.704;9.122;2024-03-23T05:21:41;11.07;;;6.80;;
1090;SDS011;534;48.704;9.122;2024-03-23T05:24:08;11.57;;;6.97;;
1090;SDS011;534;48.704;9.122;2024-03-23T05:26:34;13.80;;;7.57;;
1090;SDS011;534;48.704;9.122;2024-03-23T05:29:01;13.87;;;7.73;;
1090;SDS011;534;48.704;9.122;2024-03-23T05:31:27;10.60;;;7.57;;
1090;SDS011;534;48.704;9.122;2024-03-23T05:33:55;11.10;;;8.07;;
1090;SDS011;534;48.704;9.122;2024-03-23T05:36:22;12.60;;;8.90;;
1090;SDS011;534;48.704;9.122;2024-03-23T05:38:49;12.53;;;8.70;;
1090;SDS011;534;48.704;9.122;2024-03-23T05:41:15;10.90;;;8.30;;
1090;SDS011;534;48.704;9.122;2024-03-23T05:43:42;12.07;;;8.13;;
1090;SDS011;534;48.704;9.122;2024-03-23T05:46:08;12.03;;;8.20;;
1090;SDS011;534;48.704;9.122;2024-03-23T05:48:34;12.87;;;8.57;;
1090;SDS011;534;48.704;9.122;2024-03-23T05:51:00;12.10;;;7.70;;
1090;SDS011;534;48.704;9.122;2024-03-23T05:53:29;13.43;;;8.10;;
1090;SDS011;534;48.704;9.122;2024-03-23T05:55:59;11.83;;;7.37;;
1090;SDS011;534;48.704;9.122;2024-03-23T05:58:28;11.67;;;7.07;;
1090;SDS011;534;48.704;9.122;2024-03-23T06:00:56;9.93;;;6.40;;
1090;SDS011;534;48.704;9.122;2024-03-23T06:03:25;9.33;;;5.13;;
1090;SDS011;534;48.704;9.122;2024-03-23T06:05:51;6.77;;;3.73;;
1090;SDS011;534;48.704;9.122;2024-03-23T06:08:18;8.40;;;4.00;;
1090;SDS011;534;48.704;9.122;2024-03-23T06:10:45;7.20;;;3.60;;
1090;SDS011;534;48.704;9.122;2024-03-23T06:13:12;7.20;;;3.20;;
1090;SDS011;534;48.704;9.122;2024-03-23T06:15:38;6.10;;;2.40;;
1090;SDS011;534;48.704;9.122;2024-03-23T06:18:05;6.47;;;3.70;;
1090;SDS011;534;48.704;9.122;2024-03-23T06:20:32;6.40;;;3.17;;
1090;SDS011;534;48.704;9.122;2024-03-23T06:22:59;5.67;;;2.20;;
1090;SDS011;534;48.704;9.122;2024-03-23T06:25:25;5.53;;;2.50;;
1090;SDS011;534;48.704;9.122;2024-03-23T06:27:53;5.13;;;2.07;;
1090;SDS011;534;48.704;9.122;2024-03-23T06:30:18;6.03;;;2.00;;
1090;SDS011;534;48.704;9.122;2024-03-23T06:32:45;5.27;;;1.93;;
1090;SDS011;534;48.704;9.122;2024-03-23T06:35:11;5.30;;;1.70;;
1090;SDS011;534;48.704;9.122;2024-03-23T06:37:38;4.90;;;1.80;;
1090;SDS011;534;48.704;9.122;2024-03-23T06:40:04;6.57;;;2.27;;
1090;SDS011;534;48.704;9.122;2024-03-23T06:42:34;4.40;;;1.50;;
1090;SDS011;534;48.704;9.122;2024-03-23T06:45:02;5.30;;;1.90;;
1090;SDS011;534;48.704;9.122;2024-03-23T06:47:29;5.07;;;1.57;;
1090;SDS011;534;48.704;9.122;2024-03-23T06:49:55;4.70;;;1.47;;
1090;SDS011;534;48.704;9.122;2024-03-23T06:52:22;4.57;;;1.80;;
1090;SDS011;534;48.704;9.122;2024-03-23T06:54:48;5.17;;;1.83;;
1090;SDS011;534;48.704;9.122;2024-03-23T06:57:14;4.20;;;1.23;;
1090;SDS011;534;48.704;9.122;2024-03-23T06:59:40;4.30;;;1.20;;
1090;SDS011;534;48.704;9.122;2024-03-23T07:02:08;4.87;;;1.40;;
1090;SDS011;534;48.704;9.122;2024-03-23T07:04:34;6.40;;;1.20;;
1090;SDS011;534;48.704;9.122;2024-03-23T07:07:00;4.00;;;0.90;;
1090;SDS011;534;48.704;9.122;2024-03-23T07:09:26;4.20;;;1.10;;
1090;SDS011;534;48.704;9.122;2024-03-23T07:11:53;4.60;;;1.30;;
1090;SDS011;534;48.704;9.122;2024-03-23T07:14:19;3.97;;;1.03;;
1090;SDS011;534;48.704;9.122;2024-03-23T07:16:46;3.90;;;0.90;;
1090;SDS011;534;48.704;9.122;2024-03-23T07:19:13;3.83;;;0.83;;
1090;SDS011;534;48.704;9.122;2024-03-23T07:21:41;3.83;;;0.80;;
1090;SDS011;534;48.704;9.122;2024-03-23T07:24:07;3.90;;;0.70;;
1090;SDS011;534;48.704;9.122;2024-03-23T07:26:34;3.83;;;0.80;;
1090;SDS011;534;48.704;9.122;2024-03-23T07:28:59;3.90;;;0.80;;
1090;SDS011;534;48.704;9.122;2024-03-23T07:31:27;3.90;;;0.80;;
1090;SDS011;534;48.704;9.122;2024-03-23T07:33:52;3.70;;;0.70;;
1090;SDS011;534;48.704;9.122;2024-03-23T07:36:21;4.07;;;0.80;;
1090;SDS011;534;48.704;9.122;2024-03-23T07:38:46;4.40;;;0.80;;
1090;SDS011;534;48.704;9.122;2024-03-23T07:41:14;3.60;;;0.70;;
1090;SDS011;534;48.704;9.122;2024-03-23T07:43:42;3.70;;;0.70;;
1090;SDS011;534;48.704;9.122;2024-03-23T07:46:09;3.70;;;0.70;;
1090;SDS011;534;48.704;9.122;2024-03-23T07:48:37;3.67;;;0.70;;
1090;SDS011;534;48.704;9.122;2024-03-23T07:51:05;4.17;;;0.80;;
1090;SDS011;534;48.704;9.122;2024-03-23T07:53:34;3.83;;;0.70;;
1090;SDS011;534;48.704;9.122;2024-03-23T07:56:02;3.77;;;0.80;;
1090;SDS011;534;48.704;9.122;2024-03-23T07:58:30;3.77;;;0.70;;
1090;SDS011;534;48.704;9.122;2024-03-23T08:01:01;3.80;;;0.60;;
1090;SDS011;534;48.704;9.122;2024-03-23T08:03:29;3.80;;;0.80;;
1090;SDS011;534;48.704;9.122;2024-03-23T08:05:55;3.70;;;0.80;;
1090;SDS011;534;48.704;9.122;2024-03-23T08:08:21;3.60;;;0.60;;
1090;SDS011;534;48.704;9.122;2024-03-23T08:10:50;3.90;;;0.77;;
1090;SDS011;534;48.704;9.122;2024-03-23T08:13:16;3.57;;;0.60;;
1090;SDS011;534;48.704;9.122;2024-03-23T08:15:43;3.57;;;0.60;;
1090;SDS011;534;48.704;9.122;2024-03-23T08:18:09;3.80;;;0.70;;
1090;SDS011;534;48.704;9.122;2024-03-23T08:20:36;3.57;;;0.60;;
1090;SDS011;534;48.704;9.122;2024-03-23T08:23:02;3.80;;;0.80;;
1090;SDS011;534;48.704;9.122;2024-03-23T08:25:30;3.90;;;1.00;;
1090;SDS011;534;48.704;9.122;2024-03-23T08:27:57;4.03;;;1.03;;
1090;SDS011;534;48.704;9.122;2024-03-23T08:30:24;5.30;;;1.07;;
1090;SDS011;534;48.704;9.122;2024-03-23T08:32:50;4.50;;;1.13;;
1090;SDS011;534;48.704;9.122;2024-03-23T08:35:17;3.97;;;1.00;;
1090;SDS011;534;48.704;9.122;2024-03-23T08:37:43;4.30;;;1.00;;
1090;SDS011;534;48.704;9.122;2024-03-23T08:40:10;4.47;;;1.40;;
1090;SDS011;534;48.704;9.122;2024-03-23T08:42:36;4.40;;;1.53;;
1090;SDS011;534;48.704;9.122;2024-03-23T08:45:04;5.80;;;1.30;;
1090;SDS011;534;48.704;9.122;2024-03-23T08:47:33;5.00;;;1.30;;
1090;SDS011;534;48.704;9.122;2024-03-23T08:50:00;4.20;;;1.30;;
1090;SDS011;534;48.704;9.122;2024-03-23T08:52:26;8.00;;;1.33;;
1090;SDS011;534;48.704;9.122;2024-03-23T08:54:53;4.70;;;1.97;;
1090;SDS011;534;48.704;9.122;2024-03-23T08:57:19;4.40;;;1.20;;
1090;SDS011;534;48.704;9.122;2024-03-23T08:59:46;4.70;;;1.70;;
1090;SDS011;534;48.704;9.122;2024-03-23T09:02:13;4.40;;;1.30;;
1090;SDS011;534;48.704;9.122;2024-03-23T09:04:40;5.17;;;1.63;;
1090;SDS011;534;48.704;9.122;2024-03-23T09:07:05;5.53;;;1.70;;
1090;SDS011;534;48.704;9.122;2024-03-23T09:09:32;5.20;;;1.80;;
1090;SDS011;534;48.704;9.122;2024-03-23T09:11:58;5.17;;;1.53;;
1090;SDS011;534;48.704;9.122;2024-03-23T09:14:24;6.47;;;1.80;;
1090;SDS011;534;48.704;9.122;2024-03-23T09:16:50;4.70;;;1.80;;
1090;SDS011;534;48.704;9.122;2024-03-23T09:19:18;5.37;;;1.90;;
1090;SDS011;534;48.704;9.122;2024-03-23T09:21:45;5.17;;;2.00;;
1090;SDS011;534;48.704;9.122;2024-03-23T09:24:11;7.40;;;2.70;;
1090;SDS011;534;48.704;9.122;2024-03-23T09:26:37;6.60;;;2.90;;
1090;SDS011;534;48.704;9.122;2024-03-23T09:29:04;7.30;;;2.50;;
1090;SDS011;534;48.704;9.122;2024-03-23T09:31:29;5.27;;;2.67;;
1090;SDS011;534;48.704;9.122;2024-03-23T09:33:56;7.10;;;2.93;;
1090;SDS011;534;48.704;9.122;2024-03-23T09:36:24;6.80;;;3.37;;
1090;SDS011;534;48.704;9.122;2024-03-23T09:38:50;7.93;;;3.10;;
1090;SDS011;534;48.704;9.122;2024-03-23T09:41:16;8.60;;;3.40;;
1090;SDS011;534;48.704;9.122;2024-03-23T09:43:43;7.53;;;4.00;;
1090;SDS011;534;48.704;9.122;2024-03-23T09:46:09;9.80;;;2.93;;
1090;SDS011;534;48.704;9.122;2024-03-23T09:48:36;6.80;;;3.37;;
1090;SDS011;534;48.704;9.122;2024-03-23T09:51:02;7.77;;;3.40;;
1090;SDS011;534;48.704;9.122;2024-03-23T09:53:31;9.90;;;3.50;;
1090;SDS011;534;48.704;9.122;2024-03-23T09:55:57;12.00;;;3.47;;
1090;SDS011;534;48.704;9.122;2024-03-23T09:58:24;6.20;;;3.47;;
1090;SDS011;534;48.704;9.122;2024-03-23T10:00:49;7.83;;;3.40;;
1090;SDS011;534;48.704;9.122;2024-03-23T10:03:16;6.80;;;3.00;;
1090;SDS011;534;48.704;9.122;2024-03-23T10:05:42;8.53;;;3.20;;
1090;SDS011;534;48.704;9.122;2024-03-23T10:08:17;7.70;;;2.87;;
1090;SDS011;534;48.704;9.122;2024-03-23T10:10:45;11.27;;;3.37;;
1090;SDS011;534;48.704;9.122;2024-03-23T10:13:23;7.60;;;3.30;;
1090;SDS011;534;48.704;9.122;2024-03-23T10:15:54;9.40;;;3.60;;
1090;SDS011;534;48.704;9.122;2024-03-23T10:18:22;7.67;;;4.30;;
1090;SDS011;534;48.704;9.122;2024-03-23T10:20:50;7.13;;;3.03;;
1090;SDS011;534;48.704;9.122;2024-03-23T10:23:18;5.80;;;2.47;;
1090;SDS011;534;48.704;9.122;2024-03-23T10:25:45;7.77;;;2.57;;
1090;SDS011;534;48.704;9.122;2024-03-23T10:28:12;8.83;;;2.80;;
1090;SDS011;534;48.704;9.122;2024-03-23T10:30:38;8.50;;;3.67;;
1090;SDS011;534;48.704;9.122;2024-03-23T10:33:08;8.77;;;3.67;;
1090;SDS011;534;48.704;9.122;2024-03-23T10:35:34;7.70;;;2.97;;
1090;SDS011;534;48.704;9.122;2024-03-23T10:38:03;9.40;;;3.57;;
1090;SDS011;534;48.704;9.122;2024-03-23T10:40:30;7.50;;;3.90;;
1090;SDS011;534;48.704;9.122;2024-03-23T10:42:58;6.50;;;3.83;;
1090;SDS011;534;48.704;9.122;2024-03-23T10:45:23;7.40;;;3.60;;
1090;SDS011;534;48.704;9.122;2024-03-23T10:47:50;11.53;;;3.97;;
1090;SDS011;534;48.704;9.122;2024-03-23T10:50:17;6.83;;;3.00;;
1090;SDS011;534;48.704;9.122;2024-03-23T10:52:45;9.40;;;2.70;;
1090;SDS011;534;48.704;9.122;2024-03-23T10:55:12;7.77;;;3.40;;
1090;SDS011;534;48.704;9.122;2024-03-23T10:57:42;7.10;;;3.20;;
1090;SDS011;534;48.704;9.122;2024-03-23T11:00:14;6.90;;;2.60;;
1090;SDS011;534;48.704;9.122;2024-03-23T11:02:42;7.67;;;2.10;;
1090;SDS011;534;48.704;9.122;2024-03-23T11:07:55;5.10;;;1.73;;
1090;SDS011;534;48.704;9.122;2024-03-23T11:10:24;5.47;;;1.60;;
1090;SDS011;534;48.704;9.122;2024-03-23T11:12:52;6.07;;;1.93;;
1090;SDS011;534;48.704;9.122;2024-03-23T11:15:19;6.17;;;2.70;;
1090;SDS011;534;48.704;9.122;2024-03-23T11:20:30;5.93;;;2.10;;
1090;SDS011;534;48.704;9.122;2024-03-23T11:22:58;7.90;;;2.63;;
1090;SDS011;534;48.704;9.122;2024-03-23T11:25:25;6.50;;;2.43;;
1090;SDS011;534;48.704;9.122;2024-03-23T11:27:53;5.87;;;2.10;;
1090;SDS011;534;48.704;9.122;2024-03-23T11:30:21;6.27;;;1.60;;
1090;SDS011;534;48.704;9.122;2024-03-23T11:32:49;6.50;;;1.80;;
1090;SDS011;534;48.704;9.122;2024-03-23T11:35:28;6.30;;;2.23;;
1090;SDS011;534;48.704;9.122;2024-03-23T11:38:01;5.03;;;2.00;;
1090;SDS011;534;48.704;9.122;2024-03-23T11:40:30;6.00;;;2.00;;
1090;SDS011;534;48.704;9.122;2024-03-23T11:42:58;6.20;;;2.13;;
1090;SDS011;534;48.704;9.122;2024-03-23T11:45:26;7.80;;;2.47;;
1090;SDS011;534;48.704;9.122;2024-03-23T11:48:04;7.60;;;2.60;;
1090;SDS011;534;48.704;9.122;2024-03-23T11:50:31;5.10;;;2.20;;
1090;SDS011;534;48.704;9.122;2024-03-23T11:53:12;4.63;;;1.67;;
1090;SDS011;534;48.704;9.122;2024-03-23T11:55:39;7.60;;;1.90;;
1090;SDS011;534;48.704;9.122;2024-03-23T11:58:08;6.60;;;2.20;;
1090;SDS011;534;48.704;9.122;2024-03-23T12:00:35;5.80;;;1.97;;
1090;SDS011;534;48.704;9.122;2024-03-23T12:03:02;5.70;;;2.00;;
1090;SDS011;534;48.704;9.122;2024-03-23T12:05:28;5.00;;;1.87;;
1090;SDS011;534;48.704;9.122;2024-03-23T12:07:55;5.30;;;1.80;;
1090;SDS011;534;48.704;9.122;2024-03-23T12:10:42;6.90;;;2.20;;
1090;SDS011;534;48.704;9.122;2024-03-23T12:13:10;7.57;;;2.23;;
1090;SDS011;534;48.704;9.122;2024-03-23T12:15:37;7.53;;;2.17;;
1090;SDS011;534;48.704;9.122;2024-03-23T12:18:07;5.47;;;1.80;;
1090;SDS011;534;48.704;9.122;2024-03-23T12:20:33;9.77;;;1.90;;
1090;SDS011;534;48.704;9.122;2024-03-23T12:23:06;5.40;;;1.70;;
1090;SDS011;534;48.704;9.122;2024-03-23T12:25:36;5.43;;;2.60;;
1090;SDS011;534;48.704;9.122;2024-03-23T12:28:04;8.57;;;2.90;;
1090;SDS011;534;48.704;9.122;2024-03-23T12:30:31;6.50;;;2.30;;
1090;SDS011;534;48.704;9.122;2024-03-23T12:32:59;6.60;;;2.00;;
1090;SDS011;534;48.704;9.122;2024-03-23T12:35:25;7.33;;;1.93;;
1090;SDS011;534;48.704;9.122;2024-03-23T12:37:52;8.47;;;2.13;;
1090;SDS011;534;48.704;9.122;2024-03-23T12:40:18;9.73;;;2.30;;
1090;SDS011;534;48.704;9.122;2024-03-23T12:42:44;8.57;;;2.47;;
1090;SDS011;534;48.704;9.122;2024-03-23T12:45:10;8.47;;;2.87;;
1090;SDS011;534;48.704;9.122;2024-03-23T12:47:36;5.13;;;2.30;;
1090;SDS011;534;48.704;9.122;2024-03-23T12:50:04;10.23;;;2.87;;
1090;SDS011;534;48.704;9.122;2024-03-23T12:52:32;8.40;;;2.67;;
1090;SDS011;534;48.704;9.122;2024-03-23T12:54:57;6.70;;;2.33;;
1090;SDS011;534;48.704;9.122;2024-03-23T12:57:24;7.30;;;3.20;;
1090;SDS011;534;48.704;9.122;2024-03-23T12:59:51;8.17;;;2.83;;
1090;SDS011;534;48.704;9.122;2024-03-23T13:02:18;8.83;;;3.13;;
1090;SDS011;534;48.704;9.122;2024-03-23T13:04:44;7.73;;;2.87;;
1090;SDS011;534;48.704;9.122;2024-03-23T13:07:13;7.90;;;2.67;;
1090;SDS011;534;48.704;9.122;2024-03-23T13:09:39;10.70;;;2.87;;
1090;SDS011;534;48.704;9.122;2024-03-23T13:12:06;8.70;;;2.83;;
1090;SDS011;534;48.704;9.122;2024-03-23T13:14:32;6.93;;;3.00;;
1090;SDS011;534;48.704;9.122;2024-03-23T13:16:59;9.00;;;3.53;;
1090;SDS011;534;48.704;9.122;2024-03-23T13:19:27;9.53;;;2.83;;
1090;SDS011;534;48.704;9.122;2024-03-23T13:21:55;4.87;;;1.97;;
1090;SDS011;534;48.704;9.122;2024-03-23T13:24:23;6.00;;;1.97;;
1090;SDS011;534;48.704;9.122;2024-03-23T13:26:50;4.80;;;1.17;;
1090;SDS011;534;48.704;9.122;2024-03-23T13:29:17;4.00;;;1.10;;
1090;SDS011;534;48.704;9.122;2024-03-23T13:31:44;4.20;;;1.67;;
1090;SDS011;534;48.704;9.122;2024-03-23T13:34:10;5.40;;;1.10;;
1090;SDS011;534;48.704;9.122;2024-03-23T13:36:38;4.10;;;1.20;;
1090;SDS011;534;48.704;9.122;2024-03-23T13:39:04;4.00;;;1.00;;
1090;SDS011;534;48.704;9.122;2024-03-23T13:41:37;4.57;;;1.03;;
1090;SDS011;534;48.704;9.122;2024-03-23T13:44:03;4.30;;;0.80;;
1090;SDS011;534;48.704;9.122;2024-03-23T13:46:30;4.50;;;1.17;;
1090;SDS011;534;48.704;9.122;2024-03-23T13:48:56;4.90;;;1.13;;
1090;SDS011;534;48.704;9.122;2024-03-23T13:51:23;5.23;;;1.00;;
1090;SDS011;534;48.704;9.122;2024-03-23T13:53:50;6.33;;;1.57;;
1090;SDS011;534;48.704;9.122;2024-03-23T13:56:16;6.07;;;1.60;;
1090;SDS011;534;48.704;9.122;2024-03-23T13:58:43;4.80;;;1.60;;
1090;SDS011;534;48.704;9.122;2024-03-23T14:01:11;6.20;;;1.97;;
1090;SDS011;534;48.704;9.122;2024-03-23T14:03:38;4.90;;;1.53;;
1090;SDS011;534;48.704;9.122;2024-03-23T14:06:05;6.00;;;2.30;;
1090;SDS011;534;48.704;9.122;2024-03-23T14:08:32;6.20;;;1.50;;
1090;SDS011;534;48.704;9.122;2024-03-23T14:11:00;5.47;;;1.77;;
1090;SDS011;534;48.704;9.122;2024-03-23T14:13:28;4.70;;;1.70;;
1090;SDS011;534;48.704;9.122;2024-03-23T14:15:56;5.20;;;1.70;;
1090;SDS011;534;48.704;9.122;2024-03-23T14:18:22;4.30;;;1.17;;
1090;SDS011;534;48.704;9.122;2024-03-23T14:20:48;4.10;;;1.20;;
1090;SDS011;534;48.704;9.122;2024-03-23T14:23:14;4.57;;;1.20;;
1090;SDS011;534;48.704;9.122;2024-03-23T14:25:41;7.30;;;1.10;;
1090;SDS011;534;48.704;9.122;2024-03-23T14:28:07;5.27;;;1.33;;
1090;SDS011;534;48.704;9.122;2024-03-23T14:30:38;4.30;;;1.13;;
1090;SDS011;534;48.704;9.122;2024-03-23T14:33:05;5.00;;;1.60;;
1090;SDS011;534;48.704;9.122;2024-03-23T14:35:32;4.73;;;1.30;;
1090;SDS011;534;48.704;9.122;2024-03-23T14:37:58;4.40;;;1.23;;
1090;SDS011;534;48.704;9.122;2024-03-23T14:40:24;4.80;;;1.30;;
1090;SDS011;534;48.704;9.122;2024-03-23T14:42:52;4.20;;;1.10;;
1090;SDS011;534;48.704;9.122;2024-03-23T14:45:19;5.80;;;1.33;;
1090;SDS011;534;48.704;9.122;2024-03-23T14:47:45;4.93;;;1.17;;
1090;SDS011;534;48.704;9.122;2024-03-23T14:50:13;4.00;;;1.10;;
1090;SDS011;534;48.704;9.122;2024-03-23T14:52:40;5.43;;;1.47;;
1090;SDS011;534;48.704;9.122;2024-03-23T14:55:07;5.07;;;1.63;;
1090;SDS011;534;48.704;9.122;2024-03-23T14:57:34;5.70;;;1.40;;
1090;SDS011;534;48.704;9.122;2024-03-23T15:00:01;4.83;;;1.20;;
1090;SDS011;534;48.704;9.122;2024-03-23T15:02:29;6.20;;;1.40;;
1090;SDS011;534;48.704;9.122;2024-03-23T15:04:57;4.40;;;1.40;;
1090;SDS011;534;48.704;9.122;2024-03-23T15:07:24;5.30;;;1.53;;
1090;SDS011;534;48.704;9.122;2024-03-23T15:09:51;5.03;;;1.30;;
1090;SDS011;534;48.704;9.122;2024-03-23T15:12:18;5.57;;;1.63;;
1090;SDS011;534;48.704;9.122;2024-03-23T15:14:46;5.20;;;1.67;;
1090;SDS011;534;48.704;9.122;2024-03-23T15:17:12;4.70;;;1.40;;
1090;SDS011;534;48.704;9.122;2024-03-23T15:19:39;4.60;;;1.20;;
1090;SDS011;534;48.704;9.122;2024-03-23T15:22:05;4.90;;;1.27;;
1090;SDS011;534;48.704;9.122;2024-03-23T15:24:33;4.00;;;1.00;;
1090;SDS011;534;48.704;9.122;2024-03-23T15:27:00;5.00;;;1.27;;
1090;SDS011;534;48.704;9.122;2024-03-23T15:29:27;4.80;;;1.30;;
1090;SDS011;534;48.704;9.122;2024-03-23T15:31:52;4.37;;;1.30;;
1090;SDS011;534;48.704;9.122;2024-03-23T15:34:19;5.10;;;1.40;;
1090;SDS011;534;48.704;9.122;2024-03-23T15:36:46;5.87;;;1.40;;
1090;SDS011;534;48.704;9.122;2024-03-23T15:39:14;4.00;;;1.27;;
1090;SDS011;534;48.704;9.122;2024-03-23T15:41:41;4.47;;;1.50;;
1090;SDS011;534;48.704;9.122;2024-03-23T15:44:10;4.13;;;1.10;;
1090;SDS011;534;48.704;9.122;2024-03-23T15:46:36;4.07;;;1.13;;
1090;SDS011;534;48.704;9.122;2024-03-23T15:49:02;5.03;;;1.57;;
1090;SDS011;534;48.704;9.122;2024-03-23T15:51:28;5.33;;;1.30;;
1090;SDS011;534;48.704;9.122;2024-03-23T15:53:57;4.20;;;1.10;;
1090;SDS011;534;48.704;9.122;2024-03-23T15:56:23;5.30;;;1.10;;
1090;SDS011;534;48.704;9.122;2024-03-23T15:58:51;6.53;;;1.37;;
1090;SDS011;534;48.704;9.122;2024-03-23T16:01:17;6.20;;;1.27;;
1090;SDS011;534;48.704;9.122;2024-03-23T16:03:44;5.80;;;1.43;;
1090;SDS011;534;48.704;9.122;2024-03-23T16:06:09;4.30;;;1.30;;
1090;SDS011;534;48.704;9.122;2024-03-23T16:08:36;4.10;;;1.00;;
1090;SDS011;534;48.704;9.122;2024-03-23T16:11:02;5.60;;;1.23;;
1090;SDS011;534;48.704;9.122;2024-03-23T16:13:30;4.70;;;1.20;;
1090;SDS011;534;48.704;9.122;2024-03-23T16:15:58;5.30;;;1.20;;
1090;SDS011;534;48.704;9.122;2024-03-23T16:18:26;4.60;;;0.93;;
1090;SDS011;534;48.704;9.122;2024-03-23T16:20:53;4.30;;;1.00;;
1090;SDS011;534;48.704;9.122;2024-03-23T16:23:19;4.30;;;1.07;;
1090;SDS011;534;48.704;9.122;2024-03-23T16:25:47;4.07;;;1.00;;
1090;SDS011;534;48.704;9.122;2024-03-23T16:28:20;5.53;;;1.30;;
1090;SDS011;534;48.704;9.122;2024-03-23T16:30:54;4.80;;;1.33;;
1090;SDS011;534;48.704;9.122;2024-03-23T16:33:22;5.00;;;1.30;;
1090;SDS011;534;48.704;9.122;2024-03-23T16:35:55;4.00;;;1.10;;
1090;SDS011;534;48.704;9.122;2024-03-23T16:38:22;4.50;;;1.20;;
1090;SDS011;534;48.704;9.122;2024-03-23T16:40:55;4.23;;;1.20;;
1090;SDS011;534;48.704;9.122;2024-03-23T16:43:21;5.17;;;1.50;;
1090;SDS011;534;48.704;9.122;2024-03-23T16:45:51;5.67;;;1.20;;
1090;SDS011;534;48.704;9.122;2024-03-23T16:48:19;4.33;;;0.90;;
1090;SDS011;534;48.704;9.122;2024-03-23T16:50:47;4.50;;;1.30;;
1090;SDS011;534;48.704;9.122;2024-03-23T16:53:13;4.67;;;0.90;;
1090;SDS011;534;48.704;9.122;2024-03-23T16:55:39;3.87;;;0.90;;
1090;SDS011;534;48.704;9.122;2024-03-23T16:58:05;5.07;;;1.33;;
1090;SDS011;534;48.704;9.122;2024-03-23T17:00:33;4.97;;;1.40;;
1090;SDS011;534;48.704;9.122;2024-03-23T17:02:59;4.47;;;1.30;;
1090;SDS011;534;48.704;9.122;2024-03-23T17:05:25;4.43;;;0.90;;
1090;SDS011;534;48.704;9.122;2024-03-23T17:07:52;4.80;;;1.40;;
1090;SDS011;534;48.704;9.122;2024-03-23T17:10:21;6.73;;;1.20;;
1090;SDS011;534;48.704;9.122;2024-03-23T17:12:47;4.60;;;1.20;;
1090;SDS011;534;48.704;9.122;2024-03-23T17:15:13;5.00;;;1.40;;
1090;SDS011;534;48.704;9.122;2024-03-23T17:17:40;4.57;;;1.17;;
1090;SDS011;534;48.704;9.122;2024-03-23T17:20:06;4.03;;;1.03;;
1090;SDS011;534;48.704;9.122;2024-03-23T17:22:35;4.80;;;1.47;;
1090;SDS011;534;48.704;9.122;2024-03-23T17:25:03;4.63;;;1.77;;
1090;SDS011;534;48.704;9.122;2024-03-23T17:27:29;5.20;;;1.60;;
1090;SDS011;534;48.704;9.122;2024-03-23T17:29:56;4.00;;;1.23;;
1090;SDS011;534;48.704;9.122;2024-03-23T17:32:22;6.47;;;1.30;;
1090;SDS011;534;48.704;9.122;2024-03-23T17:34:48;4.60;;;1.30;;
1090;SDS011;534;48.704;9.122;2024-03-23T17:37:15;4.90;;;1.63;;
1090;SDS011;534;48.704;9.122;2024-03-23T17:39:42;6.43;;;1.13;;
1090;SDS011;534;48.704;9.122;2024-03-23T17:42:10;5.27;;;1.80;;
1090;SDS011;534;48.704;9.122;2024-03-23T17:44:35;5.10;;;1.57;;
1090;SDS011;534;48.704;9.122;2024-03-23T17:47:02;4.93;;;1.20;;
1090;SDS011;534;48.704;9.122;2024-03-23T17:49:28;4.30;;;1.10;;
1090;SDS011;534;48.704;9.122;2024-03-23T17:51:57;4.00;;;0.90;;
1090;SDS011;534;48.704;9.122;2024-03-23T17:54:25;4.57;;;1.10;;
1090;SDS011;534;48.704;9.122;2024-03-23T17:56:52;5.03;;;1.30;;
1090;SDS011;534;48.704;9.122;2024-03-23T17:59:21;4.00;;;0.90;;
1090;SDS011;534;48.704;9.122;2024-03-23T18:01:47;4.93;;;1.10;;
1090;SDS011;534;48.704;9.122;2024-03-23T18:04:13;4.53;;;0.97;;
1090;SDS011;534;48.704;9.122;2024-03-23T18:06:40;4.50;;;1.30;;
1090;SDS011;534;48.704;9.122;2024-03-23T18:09:05;4.57;;;1.17;;
1090;SDS011;534;48.704;9.122;2024-03-23T18:11:34;5.23;;;1.53;;
1090;SDS011;534;48.704;9.122;2024-03-23T18:14:00;6.93;;;1.40;;
1090;SDS011;534;48.704;9.122;2024-03-23T18:16:28;5.00;;;1.57;;
1090;SDS011;534;48.704;9.122;2024-03-23T18:18:54;5.20;;;1.30;;
1090;SDS011;534;48.704;9.122;2024-03-23T18:21:20;5.80;;;1.03;;
1090;SDS011;534;48.704;9.122;2024-03-23T18:23:46;4.53;;;1.07;;
1090;SDS011;534;48.704;9.122;2024-03-23T18:26:13;4.17;;;1.07;;
1090;SDS011;534;48.704;9.122;2024-03-23T18:28:39;3.90;;;1.00;;
1090;SDS011;534;48.704;9.122;2024-03-23T18:31:05;4.20;;;1.00;;
1090;SDS011;534;48.704;9.122;2024-03-23T18:33:34;4.77;;;1.60;;
1090;SDS011;534;48.704;9.122;2024-03-23T18:36:03;4.37;;;1.13;;
1090;SDS011;534;48.704;9.122;2024-03-23T18:38:29;4.10;;;1.30;;
1090;SDS011;534;48.704;9.122;2024-03-23T18:40:56;4.17;;;1.10;;
1090;SDS011;534;48.704;9.122;2024-03-23T18:43:22;6.73;;;1.37;;
1090;SDS011;534;48.704;9.122;2024-03-23T18:45:51;5.07;;;1.30;;
1090;SDS011;534;48.704;9.122;2024-03-23T18:48:18;4.20;;;1.23;;
1090;SDS011;534;48.704;9.122;2024-03-23T18:50:46;5.90;;;1.30;;
1090;SDS011;534;48.704;9.122;2024-03-23T18:53:12;5.47;;;1.50;;
1090;SDS011;534;48.704;9.122;2024-03-23T18:55:39;5.73;;;1.40;;
1090;SDS011;534;48.704;9.122;2024-03-23T18:58:06;4.83;;;1.10;;
1090;SDS011;534;48.704;9.122;2024-03-23T19:00:33;5.40;;;1.70;;
1090;SDS011;534;48.704;9.122;2024-03-23T19:02:59;4.40;;;1.10;;
1090;SDS011;534;48.704;9.122;2024-03-23T19:05:26;3.83;;;0.90;;
1090;SDS011;534;48.704;9.122;2024-03-23T19:07:53;4.80;;;1.07;;
1090;SDS011;534;48.704;9.122;2024-03-23T19:10:20;5.13;;;1.00;;
1090;SDS011;534;48.704;9.122;2024-03-23T19:12:46;4.57;;;1.07;;
1090;SDS011;534;48.704;9.122;2024-03-23T19:15:13;4.40;;;1.20;;
1090;SDS011;534;48.704;9.122;2024-03-23T19:17:39;3.90;;;0.90;;
1090;SDS011;534;48.704;9.122;2024-03-23T19:20:06;6.20;;;1.30;;
1090;SDS011;534;48.704;9.122;2024-03-23T19:22:34;4.40;;;1.10;;
1090;SDS011;534;48.704;9.122;2024-03-23T19:25:02;5.50;;;1.40;;
1090;SDS011;534;48.704;9.122;2024-03-23T19:27:28;5.47;;;1.20;;
1090;SDS011;534;48.704;9.122;2024-03-23T19:29:55;4.40;;;1.30;;
1090;SDS011;534;48.704;9.122;2024-03-23T19:32:21;4.80;;;1.50;;
1090;SDS011;534;48.704;9.122;2024-03-23T19:34:48;6.00;;;1.77;;
1090;SDS011;534;48.704;9.122;2024-03-23T19:37:14;4.70;;;1.50;;
1090;SDS011;534;48.704;9.122;2024-03-23T19:39:40;7.27;;;2.20;;
1090;SDS011;534;48.704;9.122;2024-03-23T19:42:07;9.17;;;1.73;;
1090;SDS011;534;48.704;9.122;2024-03-23T19:44:34;4.87;;;1.30;;
1090;SDS011;534;48.704;9.122;2024-03-23T19:47:00;7.37;;;1.37;;
1090;SDS011;534;48.704;9.122;2024-03-23T19:49:27;4.40;;;1.37;;
1090;SDS011;534;48.704;9.122;2024-03-23T19:51:52;6.13;;;2.80;;
1090;SDS011;534;48.704;9.122;2024-03-23T19:54:19;4.50;;;1.70;;
1090;SDS011;534;48.704;9.122;2024-03-23T19:56:45;4.40;;;1.40;;
1090;SDS011;534;48.704;9.122;2024-03-23T19:59:13;4.67;;;1.70;;
1090;SDS011;534;48.704;9.122;2024-03-23T20:01:39;4.37;;;1.30;;
1090;SDS011;534;48.704;9.122;2024-03-23T20:04:06;5.03;;;1.30;;
1090;SDS011;534;48.704;9.122;2024-03-23T20:06:31;6.40;;;1.60;;
1090;SDS011;534;48.704;9.122;2024-03-23T20:08:58;5.60;;;1.50;;
1090;SDS011;534;48.704;9.122;2024-03-23T20:11:24;5.83;;;1.80;;
1090;SDS011;534;48.704;9.122;2024-03-23T20:13:50;6.93;;;1.50;;
1090;SDS011;534;48.704;9.122;2024-03-23T20:16:18;4.20;;;1.27;;
1090;SDS011;534;48.704;9.122;2024-03-23T20:18:46;4.67;;;1.30;;
1090;SDS011;534;48.704;9.122;2024-03-23T20:21:11;5.43;;;1.30;;
1090;SDS011;534;48.704;9.122;2024-03-23T20:23:38;4.67;;;1.20;;
1090;SDS011;534;48.704;9.122;2024-03-23T20:26:04;5.53;;;1.50;;
1090;SDS011;534;48.704;9.122;2024-03-23T20:28:30;5.80;;;1.27;;
1090;SDS011;534;48.704;9.122;2024-03-23T20:30:56;5.10;;;1.40;;
1090;SDS011;534;48.704;9.122;2024-03-23T20:33:25;5.20;;;1.87;;
1090;SDS011;534;48.704;9.122;2024-03-23T20:35:51;5.37;;;1.50;;